KSTS/STS METAR and TAF weather

Enter ICAO airport designator
Station Type Date Time Source
KSTS METAR 2022/01/25 04:53 UTC NOAA

KSTS 250453Z AUTO 00000KT 8SM CLR 06/05 A3008 RMK AO2 SLP180 T00560050


Station Type Date Time Source
KSTS Decoded METAR 2022/01/25 04:53 UTC NOAA

SANTA ROSA SONOMA COUNTY, CA, United States (KSTS) 38-30N 122-49W 39M
Jan 24, 2022 - 11:53 PM EST / 2022.01.25 0453 UTC
Wind: Calm:0
Visibility: 8 mile(s):0
Sky conditions: clear
Temperature: 42.1 F (5.6 C)
Dew Point: 41.0 F (5.0 C)
Relative Humidity: 95%
Pressure (altimeter): 30.08 in. Hg (1018 hPa)
ob: KSTS 250453Z AUTO 00000KT 8SM CLR 06/05 A3008 RMK AO2 SLP180 T00560050
cycle: 5

Station Type Date Time Source
KSTS TAF 2022/01/25 06:22 UTC NOAA

TAF KSTS 250520Z 2506/2606 VRB03KT P6SM SKC
FM250700 00000KT 4SM BR SKC
FM251000 00000KT 1/2SM FG VV002
FM251700 VRB06KT P6SM SKC

Example: see airport list